createdAt,value
2019-01-27T00:02:09.008Z,7.44
2019-01-27T00:08:14.765Z,7.44
2019-01-27T00:14:20.633Z,7.45
2019-01-27T00:20:30.033Z,7.44
2019-01-27T00:26:36.684Z,7.47
2019-01-27T00:32:42.381Z,7.51
2019-01-27T00:38:48.156Z,7.49
2019-01-27T00:44:54.259Z,7.51
2019-01-27T00:51:00.278Z,7.48
2019-01-27T00:57:06.460Z,7.48
2019-01-27T01:03:12.546Z,7.51
2019-01-27T01:09:18.481Z,7.49
2019-01-27T01:15:24.801Z,7.47
2019-01-27T01:21:31.809Z,7.44
2019-01-27T01:27:37.994Z,7.45
2019-01-27T01:33:44.107Z,7.40
2019-01-27T01:39:50.054Z,7.40
2019-01-27T01:45:57.233Z,7.39
2019-01-27T01:52:03.445Z,7.39
2019-01-27T01:58:09.623Z,7.41
2019-01-27T02:04:15.860Z,7.41
2019-01-27T02:10:23.024Z,7.46
2019-01-27T02:16:29.019Z,7.45
2019-01-27T02:22:34.857Z,7.47
2019-01-27T02:28:41.551Z,7.48
2019-01-27T02:34:47.537Z,7.48
2019-01-27T02:40:53.430Z,7.51
2019-01-27T02:46:59.337Z,7.49
2019-01-27T02:53:05.483Z,7.53
2019-01-27T02:59:11.329Z,7.52
2019-01-27T03:05:51.270Z,7.51
2019-01-27T03:11:57.174Z,7.49
2019-01-27T03:18:03.199Z,7.45
2019-01-27T03:24:09.132Z,7.45
2019-01-27T03:30:18.106Z,7.48
2019-01-27T03:36:23.827Z,7.45
2019-01-27T03:42:29.523Z,7.44
2019-01-27T03:48:35.332Z,7.44
2019-01-27T03:54:41.490Z,7.39
2019-01-27T04:00:47.490Z,7.40
2019-01-27T04:06:54.639Z,7.39
2019-01-27T04:13:00.490Z,7.37
2019-01-27T04:19:09.311Z,7.41
2019-01-27T04:25:17.025Z,7.35
2019-01-27T04:31:22.932Z,7.39
2019-01-27T04:37:28.831Z,7.42
2019-01-27T04:43:34.527Z,7.43
2019-01-27T04:49:40.582Z,7.48
2019-01-27T04:55:46.433Z,7.50
2019-01-27T05:01:52.193Z,7.52
2019-01-27T05:07:58.157Z,7.52
2019-01-27T05:14:04.263Z,7.50
2019-01-27T05:20:11.604Z,7.46
2019-01-27T05:26:17.557Z,7.47
2019-01-27T05:32:23.252Z,7.49
2019-01-27T05:38:29.019Z,7.43
2019-01-27T05:44:35.006Z,7.40
2019-01-27T05:50:40.921Z,7.38
2019-01-27T05:56:46.654Z,7.40
2019-01-27T06:02:52.656Z,7.45
2019-01-27T06:08:58.452Z,7.44
2019-01-27T06:15:05.346Z,7.44
2019-01-27T06:21:11.203Z,7.45
2019-01-27T06:27:16.928Z,7.44
2019-01-27T06:33:32.592Z,7.48
2019-01-27T06:39:38.521Z,7.50
2019-01-27T06:45:44.360Z,7.52
2019-01-27T06:51:50.140Z,7.47
2019-01-27T06:57:55.973Z,7.36
2019-01-27T07:04:09.062Z,7.30
2019-01-27T07:10:52.205Z,7.29
2019-01-27T07:17:09.683Z,7.34
2019-01-27T07:23:33.394Z,7.40
2019-01-27T07:30:13.677Z,7.40
2019-01-27T07:36:44.385Z,7.43
2019-01-27T07:42:57.709Z,7.54
2019-01-27T07:49:21.456Z,7.58
2019-01-27T07:55:45.061Z,7.65
2019-01-27T08:02:14.507Z,7.66
2019-01-27T08:08:51.338Z,7.71
2019-01-27T08:15:21.201Z,7.76
2019-01-27T08:22:01.414Z,7.84
2019-01-27T08:28:24.363Z,7.92
2019-01-27T08:34:45.911Z,8.01
2019-01-27T08:41:10.552Z,8.05
2019-01-27T08:47:16.243Z,8.03
2019-01-27T08:53:25.255Z,8.05
2019-01-27T08:59:31.308Z,8.07
2019-01-27T09:06:02.042Z,8.15
2019-01-27T09:12:39.581Z,8.20
2019-01-27T09:18:58.004Z,8.25
2019-01-27T09:25:34.576Z,8.33
2019-01-27T09:31:58.054Z,8.38
2019-01-27T09:38:18.039Z,8.33
2019-01-27T09:45:01.339Z,8.35
2019-01-27T09:51:16.607Z,8.37
2019-01-27T09:57:31.977Z,8.40
2019-01-27T10:03:54.185Z,8.39
2019-01-27T10:10:33.741Z,8.36
2019-01-27T10:16:57.369Z,8.40
2019-01-27T10:23:40.826Z,8.37
2019-01-27T10:30:02.312Z,8.39
2019-01-27T10:36:17.567Z,8.43
2019-01-27T10:42:31.567Z,8.42
2019-01-27T10:49:13.724Z,8.47
2019-01-27T10:55:29.866Z,8.55
2019-01-27T11:01:53.138Z,8.54
2019-01-27T11:08:06.380Z,8.59
2019-01-27T11:14:32.891Z,8.47
2019-01-27T11:20:58.107Z,8.49
2019-01-27T11:27:32.973Z,8.43
2019-01-27T11:33:44.120Z,8.35
2019-01-27T11:46:38.453Z,8.27
2019-01-27T11:53:12.285Z,8.26
2019-01-27T11:59:18.509Z,8.30
2019-01-27T12:05:24.440Z,8.40
2019-01-27T12:11:30.489Z,8.37
2019-01-27T12:17:38.697Z,8.29
2019-01-27T12:23:44.416Z,8.35
2019-01-27T12:29:50.630Z,8.30
2019-01-27T12:35:57.458Z,8.24
2019-01-27T12:42:03.265Z,8.16
2019-01-27T12:48:09.059Z,8.08
2019-01-27T12:54:14.854Z,8.01
2019-01-27T13:00:37.136Z,8.05
2019-01-27T13:06:43.040Z,8.07
2019-01-27T13:12:49.021Z,8.04
2019-01-27T13:18:55.273Z,8.05
2019-01-27T13:25:01.492Z,8.09
2019-01-27T13:31:07.482Z,8.15
2019-01-27T13:37:13.453Z,8.16
2019-01-27T13:43:19.742Z,8.17
2019-01-27T13:49:25.602Z,8.19
2019-01-27T13:55:32.695Z,8.17
2019-01-27T14:01:38.617Z,8.15
2019-01-27T14:07:44.615Z,8.17
2019-01-27T14:13:50.490Z,8.15
2019-01-27T14:20:00.043Z,8.13
2019-01-27T14:26:06.174Z,8.14
2019-01-27T14:32:12.557Z,8.15
2019-01-27T14:38:20.115Z,8.16
2019-01-27T14:44:27.197Z,8.22
2019-01-27T14:50:41.622Z,8.13
2019-01-27T14:56:47.714Z,8.05
2019-01-27T15:02:53.877Z,7.94
2019-01-27T15:09:00.126Z,7.82
2019-01-27T15:15:09.959Z,7.71
2019-01-27T15:21:26.279Z,7.58
2019-01-27T15:27:32.061Z,7.52
2019-01-27T15:33:39.743Z,7.32
2019-01-27T15:39:45.641Z,6.88
2019-01-27T15:45:51.583Z,6.64
2019-01-27T15:51:57.657Z,6.34
2019-01-27T15:58:03.852Z,6.20
2019-01-27T16:04:09.806Z,6.07
2019-01-27T16:10:18.272Z,5.98
2019-01-27T16:16:24.174Z,6.00
2019-01-27T16:22:30.131Z,5.97
2019-01-27T16:28:36.125Z,5.97
2019-01-27T16:34:47.115Z,5.97
2019-01-27T16:40:52.907Z,6.00
2019-01-27T16:47:04.035Z,6.02
2019-01-27T16:53:09.979Z,6.06
2019-01-27T16:59:16.023Z,5.98
2019-01-27T17:05:22.261Z,6.07
2019-01-27T17:11:28.205Z,6.05
2019-01-27T17:17:36.491Z,6.00
2019-01-27T17:23:42.357Z,5.98
2019-01-27T17:29:54.993Z,5.93
2019-01-27T17:36:01.136Z,5.99
2019-01-27T17:42:07.260Z,6.01
2019-01-27T17:48:13.175Z,6.01
2019-01-27T17:54:19.451Z,6.05
2019-01-27T18:00:53.416Z,6.03
2019-01-27T18:07:21.174Z,5.97
2019-01-27T18:13:55.572Z,5.95
2019-01-27T18:20:01.773Z,5.97
2019-01-27T18:26:12.719Z,5.90
2019-01-27T18:32:19.361Z,5.93
2019-01-27T18:38:26.467Z,5.93
2019-01-27T18:44:32.685Z,6.01
2019-01-27T18:50:38.822Z,5.90
2019-01-27T18:57:00.707Z,5.81
2019-01-27T19:03:11.729Z,5.87
2019-01-27T19:09:51.091Z,5.85
2019-01-27T19:16:24.247Z,5.80
2019-01-27T19:22:55.063Z,5.73
2019-01-27T19:29:28.508Z,5.68
2019-01-27T19:36:12.161Z,5.64
2019-01-27T19:42:39.966Z,5.63
2019-01-27T19:48:59.470Z,5.56
2019-01-27T19:55:26.018Z,5.53
2019-01-27T20:01:49.872Z,5.54
2019-01-27T20:08:17.310Z,5.54
2019-01-27T20:14:58.289Z,5.53
2019-01-27T20:21:30.052Z,5.51
2019-01-27T20:28:04.152Z,5.42
2019-01-27T20:34:31.962Z,5.38
2019-01-27T20:41:01.926Z,5.29
2019-01-27T20:47:13.562Z,5.22
2019-01-27T20:53:27.978Z,5.05
2019-01-27T20:59:56.608Z,5.00
2019-01-27T21:06:31.311Z,5.02
2019-01-27T21:12:50.935Z,5.06
2019-01-27T21:19:10.887Z,5.01
2019-01-27T21:25:16.751Z,4.99
2019-01-27T21:31:22.483Z,5.05
2019-01-27T21:37:28.475Z,5.07
2019-01-27T21:43:34.684Z,5.03
2019-01-27T21:49:41.173Z,5.02
2019-01-27T21:55:47.141Z,5.02
2019-01-27T22:01:52.982Z,4.97
2019-01-27T22:07:59.466Z,5.03
2019-01-27T22:14:05.736Z,5.03
2019-01-27T22:20:14.864Z,4.99
2019-01-27T22:26:23.759Z,4.96
2019-01-27T22:32:30.067Z,4.95
2019-01-27T22:38:36.306Z,4.98
2019-01-27T22:44:42.430Z,4.94
2019-01-27T22:50:49.376Z,4.97
2019-01-27T22:56:55.611Z,4.99
2019-01-27T23:03:01.436Z,5.03
2019-01-27T23:09:15.941Z,5.05
2019-01-27T23:15:21.895Z,4.98
2019-01-27T23:21:27.634Z,5.02
2019-01-27T23:27:33.626Z,5.00
2019-01-27T23:33:39.423Z,4.98
2019-01-27T23:39:45.612Z,4.97
2019-01-27T23:45:51.672Z,4.97
2019-01-27T23:51:57.692Z,4.96
2019-01-27T23:58:03.529Z,5.01
